Home   Weather   Highley   Past weeks
Flag for United Kingdom

Past Weather in Highley, England, United Kingdom — Yesterday and Last 2 Weeks

Currently: 48 °F. Cool. (Weather station: Shirley - MADIS Station, United Kingdom). See more current weather

Past Weather in Highley — Graph

°F

Highley Temperature Yesterday

Maximum temperature yesterday: 53 °F (at 5:30 pm)
Minimum temperature yesterday: 42 °F (at 5:30 am)
Average temperature yesterday: 47 °F

High & Low Weather Summary for the Past Weeks

 TemperatureHumidityPressure
High66 °F (Apr 11, 1:45 pm)92% (Apr 10, 8:15 am)29.94 "Hg (Apr 10, 8:15 am)
Low34 °F (Apr 18, 6:00 am)42% (Apr 20, 2:15 pm)29.07 "Hg (Apr 15, 7:30 am)
Average48 °F75%29.63 "Hg
* Reported Apr 9 11:00 am — Apr 24 11:30 am, Highley. Weather by CustomWeather, © 2024

Note: Actual official high and low records may vary slightly from our data, if they occured in-between our weather recording intervals... More about our weather records

Highley Weather History for the Previous 24 Hours

Scroll right to see more
 ConditionsComfort  
Time TempWeatherWind HumidityBarometerVisibility
11:30 am
Wed, Apr 24
47 °FCool.4 mph60%29.52 "HgN/A
11:00 am47 °FCool.4 mph58%29.53 "HgN/A
10:45 am47 °FCool.4 mph59%29.53 "HgN/A
10:15 am45 °FCool.5 mph62%29.54 "HgN/A
8:45 am42 °FQuite cool.4 mph73%29.55 "HgN/A
8:15 am41 °FQuite cool.5 mph78%29.55 "HgN/A
7:45 am41 °FQuite cool.3 mph86%29.55 "HgN/A
7:30 am41 °FQuite cool.1 mph88%29.55 "HgN/A
7:15 am41 °FQuite cool.1 mph88%29.55 "HgN/A
7:00 am40 °FQuite cool.1 mph89%29.55 "HgN/A
6:30 am40 °FQuite cool.No wind89%29.55 "HgN/A
6:15 am40 °FQuite cool.No wind89%29.55 "HgN/A
5:30 am40 °FQuite cool.1 mph88%29.56 "HgN/A
4:30 am41 °FQuite cool.2 mph86%29.57 "HgN/A
3:30 am43 °FQuite cool.1 mph82%29.58 "HgN/A
3:15 am43 °FQuite cool.3 mph79%29.58 "HgN/A
2:15 am44 °FQuite cool.2 mph77%29.59 "HgN/A
2:00 am44 °FQuite cool.1 mph77%29.59 "HgN/A
1:15 am43 °FQuite cool.1 mph75%29.61 "HgN/A
1:00 am43 °FQuite cool.1 mph75%29.61 "HgN/A
12:15 am44 °FQuite cool.1 mph74%29.63 "HgN/A
11:30 pm
Tue, Apr 23
44 °FQuite cool.1 mph70%29.63 "HgN/A
11:00 pm44 °FQuite cool.1 mph71%29.64 "HgN/A
10:30 pm44 °FQuite cool.1 mph69%29.64 "HgN/A
10:15 pm45 °FCool.1 mph67%29.65 "HgN/A
8:30 pm46 °FCool.2 mph67%29.65 "HgN/A
7:45 pm47 °FCool.3 mph64%29.65 "HgN/A
7:15 pm48 °FCool.5 mph62%29.65 "HgN/A
7:00 pm49 °FCool.3 mph63%29.64 "HgN/A
6:30 pm50 °FCool.5 mph59%29.64 "HgN/A
6:15 pm51 °FCool.4 mph57%29.64 "HgN/A
5:30 pm53 °FCool.5 mph55%29.65 "HgN/A
5:15 pm51 °FCool.4 mph56%29.65 "HgN/A
4:45 pm50 °FCool.5 mph58%29.66 "HgN/A
4:15 pm50 °FCool.5 mph59%29.67 "HgN/A
3:45 pm50 °FCool.5 mph62%29.67 "HgN/A
3:15 pm51 °FCool.7 mph65%29.67 "HgN/A
2:30 pm49 °FCool.5 mph67%29.69 "HgN/A
2:00 pm49 °FCool.6 mph68%29.69 "HgN/A
1:15 pm48 °FCool.4 mph68%29.70 "HgN/A
12:45 pm49 °FCool.6 mph68%29.70 "HgN/A
12:15 pm48 °FCool.5 mph69%29.70 "HgN/A
Weather by CustomWeather, © 2024

See weather overview